EFPO

Pori Airport

Pori, Finland
METAR EFPO 151920Z AUTO 22005KT CAVOK 02/01 Q1013
Observed Flight Rules
Feb-15 @ 19:20 UTC (32 minutes ago) Visual Flight Rules
Wind Visibility Clouds
220° at 5 knots 10,000+ meters
  • Clear skies
Temperatures Readings
Current 2°C / 36°F
Dewpoint 1°C / 34°F
Humidity 93%
Altimeter 29.91" Hg
Pressure 1012.92 hPa
Elevation 17
METAR EFPO 151920Z AUTO 22005KT CAVOK 02/01 Q1013
Observed Flight Rules
Feb-15 @ 19:20 UTC
(32 minutes ago)
VFR
Wind Visibility
220° at 5 knots 10,000+ meters
Clouds
  • Clear skies
Temperature Dewpoint
2°C / 36°F 1°C / 34°F
Humidity Altimeter Pressure
93% 29.91" Hg 1012.92 hPa